• Join FlightAware (Why Join?)
  • Login
  • US Flag 
01:26PM EDT


 

Airport Tracker/Info


-or-


 

Live Flight TrackerFlight Track Log ✈ SWA22 ✈ 08-May-2013 ✈ KHRL - KHOU

Flight Track Log - Related Links

Times and Time Zones

All times are in EDT time to prevent confusion due to time zone crossing. See the SWA22 flight status page for this flight to view local times or setup timezone preferences in your user account.

Time Position Orientation Groundspeed Altitude Reporting Facility
EDT Latitude Longitude Course Direction KTS MPH feet Rate Location/Type
11:05AM 26.2200 -97.6519 65° Northeast 131 151 600  Level Houston Center
11:05AM 26.2367 -97.6122 65° Northeast 191 220 1,900 2,160 Climbing Houston Center
11:06AM 26.3028 -97.6011 North 271 312 4,600 2,400 Climbing Houston Center
11:07AM 26.3197 -97.6000 North 250 288 5,000 1,080 Climbing Houston Center
11:07AM 26.3800 -97.5953 North 295 339 5,700 1,740 Climbing Houston Center
11:08AM 26.4069 -97.5908 North 287 330 6,800 4,020 Climbing Houston Center
11:09AM 26.4903 -97.5831 North 299 344 11,000 3,780 Climbing Houston Center
11:10AM 26.5894 -97.5733 North 326 375 14,700 3,300 Climbing Houston Center
11:11AM 26.6858 -97.5642 North 345 397 17,900 3,060 Climbing Houston Center
11:12AM 26.7878 -97.5544 North 391 450 21,100 3,120 Climbing Houston Center
11:13AM 26.8978 -97.5436 North 372 428 24,400 2,760 Climbing Houston Center
11:14AM 27.0036 -97.5272 North 389 448 26,900 2,280 Climbing Houston Center
11:15AM 27.1053 -97.4614 30° Northeast 409 471 29,200 2,220 Climbing Houston Center
11:16AM 27.2119 -97.3992 27° Northeast 400 460 31,500 1,740 Climbing Houston Center
11:17AM 27.3150 -97.3372 28° Northeast 409 471 32,900 1,680 Climbing Houston Center
11:18AM 27.4208 -97.2669 31° Northeast 422 486 35,000 1,860 Climbing Houston Center
11:19AM 27.5247 -97.2008 29° Northeast 429 494 36,800 960 Climbing Houston Center
11:20AM 27.6264 -97.1358 30° Northeast 425 489 37,000 60 Climbing Houston Center
11:21AM 27.7483 -97.0567 30° Northeast 423 487 37,000  Level Houston Center
11:22AM 27.8500 -96.9914 30° Northeast 422 486 37,000  Level Houston Center
11:23AM 27.9517 -96.9264 29° Northeast 422 486 37,000  Level Houston Center
11:24AM 28.0519 -96.8578 31° Northeast 420 483 37,000  Level Houston Center
11:25AM 28.1533 -96.7922 30° Northeast 419 482 37,000  Level Houston Center
11:26AM 28.2539 -96.7269 30° Northeast 418 481 37,000 -300 Level Houston Center
11:27AM 28.3756 -96.6478 30° Northeast 420 483 36,500 -1,680 Descending Houston Center
11:28AM 28.4756 -96.5825 30° Northeast 418 481 33,600 -3,000 Descending Houston Center
11:29AM 28.5764 -96.5164 30° Northeast 418 481 30,400 -3,000 Descending Houston Center
11:30AM 28.6778 -96.4503 30° Northeast 420 483 27,500 -2,640 Descending Houston Center
11:31AM 28.7744 -96.3864 30° Northeast 410 472 25,000 -2,640 Descending Houston Center
11:32AM 28.8847 -96.3142 30° Northeast 387 445 22,100 -2,520 Descending Houston Center
11:33AM 28.9722 -96.2553 30° Northeast 370 426 19,800 -2,280 Descending Houston Center
11:34AM 29.0394 -96.2111 30° Northeast 354 407 18,100 -2,040 Descending Houston Center
11:35AM 29.0578 -96.2000 28° Northeast 358 412 17,700 -2,160 Descending Houston Center
11:35AM 29.1350 -96.1503 29° Northeast 351 404 15,700 -2,460 Descending Houston Center
11:36AM 29.2242 -96.0900 31° Northeast 347 399 13,200 -1,860 Descending Houston Center
11:37AM 29.3033 -96.0358 31° Northeast 335 386 12,000 -840 Descending Houston Center
11:38AM 29.3669 -95.9686 43° Northeast 300 345 11,500 -1,020 Descending Houston Center
11:40AM 29.4381 -95.8958 42° Northeast 292 336 9,900 -1,140 Descending Houston Center
11:40AM 29.4881 -95.8419 43° Northeast 262 302 9,200 -720 Descending Houston Center
11:41AM 29.4914 -95.8392 36° Northeast 275 316 9,100 -1,200 Descending Houston Center
11:42AM 29.5400 -95.7881 42° Northeast 245 282 8,000 -1,500 Descending Houston Center
11:42AM 29.5511 -95.7733 49° Northeast 250 288 7,600 -1,080 Descending Houston Center
11:43AM 29.5806 -95.7258 55° Northeast 241 277 6,900 -780 Descending Houston Center
11:43AM 29.5906 -95.7097 54° Northeast 244 281 6,800 -540 Descending Houston Center
11:44AM 29.6214 -95.6658 51° Northeast 246 283 6,400 -540 Descending Houston Center
11:44AM 29.6331 -95.6481 53° Northeast 246 283 6,300 -600 Descending Houston Center
11:45AM 29.6678 -95.5978 52° Northeast 248 285 5,800 -780 Descending Houston Center
11:45AM 29.6769 -95.5872 45° Northeast 247 284 5,500 -1,200 Descending Houston Center
11:46AM 29.7128 -95.5394 49° Northeast 243 280 4,600 -1,080 Descending Houston Center
11:46AM 29.7214 -95.5275 50° Northeast 245 282 4,400 -1,200 Descending Houston Center
11:47AM 29.7558 -95.4814 49° Northeast 238 274 3,400 -1,080 Descending Houston Center
11:47AM 29.7597 -95.4678 72° East 236 272 3,300 -1,200 Descending Houston Center
11:48AM 29.7514 -95.4097 99° East 209 241 2,200 -1,260 Descending Houston Center
11:48AM 29.7408 -95.3936 127° Southeast 213 245 2,000 -420 Descending Houston Center
11:49AM 29.7133 -95.3592 133° Southeast 205 236 1,800 -540 Descending Houston Center
11:49AM 29.7019 -95.3469 137° Southeast 208 239 1,500 -900 Descending Houston Center
11:50AM 29.6806 -95.3222 135° Southeast 141 162 900 -780 Descending Houston Center
11:50AM 29.6739 -95.3133 131° Southeast 168 193 700 -600 Descending Houston Center
11:51AM 29.6569 -95.2936 135° Southeast 120 138 300 -600 Descending Houston Center
11:51AM 29.6508 -95.2861 133° Southeast 134 154 100 -540 Descending Houston Center
11:53AM 29.6454 -95.2789 115° Southeast  Level Estimated